Time;durP1;ratioP1;P1;durP2;ratioP2;P2;SDS_P1;SDS_P2;PMS_P1;PMS_P2;Temp;Humidity;BMP_temperature;BMP_pressure;BME280_temperature;BME280_humidity;BME280_pressure;Samples;Min_cycle;Max_cycle;Signal;HPM_P1;HPM_P2
2022/05/25 00:00:16;;;;;;;1.60;1.50;;;;;;;;;;5048247;28;24562;-46
2022/05/25 00:02:41;;;;;;;1.50;1.40;;;;;;;;;;5058588;28;24441;-46
2022/05/25 00:05:08;;;;;;;1.60;1.40;;;;;;;;;;5062372;28;24462;-45
2022/05/25 00:07:33;;;;;;;1.70;1.60;;;;;;;;;;5047470;28;24478;-45
2022/05/25 00:09:58;;;;;;;2.10;1.80;;;;;;;;;;5055070;28;24470;-46
2022/05/25 00:12:24;;;;;;;2.00;1.63;;;;;;;;;;5057903;28;24461;-46
2022/05/25 00:14:49;;;;;;;2.72;1.70;;;;;;;;;;5068665;28;24422;-46
2022/05/25 00:17:14;;;;;;;2.27;1.70;;;;;;;;;;5059475;28;24514;-46
2022/05/25 00:22:23;;;;;;;1.95;1.60;;;;;;;;;;5060833;28;24472;-47
2022/05/25 00:24:48;;;;;;;1.63;1.52;;;;;;;;;;5054417;28;24419;-46
2022/05/25 00:27:14;;;;;;;4.20;1.63;;;;;;;;;;5057910;28;24424;-46
2022/05/25 00:29:39;;;;;;;1.60;1.50;;;;;;;;;;5042718;28;24993;-46
2022/05/25 00:32:05;;;;;;;2.00;1.70;;;;;;;;;;5058396;28;24480;-46
2022/05/25 00:34:30;;;;;;;2.33;1.63;;;;;;;;;;5051887;28;24419;-45
2022/05/25 00:36:55;;;;;;;1.88;1.77;;;;;;;;;;5052419;28;24419;-46
2022/05/25 00:39:23;;;;;;;2.50;1.93;;;;;;;;;;5056139;28;24485;-46
2022/05/25 00:41:49;;;;;;;2.15;1.60;;;;;;;;;;5062720;28;24445;-45
2022/05/25 00:44:14;;;;;;;1.77;1.50;;;;;;;;;;5091368;28;24447;-45
2022/05/25 00:46:39;;;;;;;1.90;1.73;;;;;;;;;;5076466;28;24467;-45
2022/05/25 00:49:06;;;;;;;2.90;1.70;;;;;;;;;;5093724;28;24444;-46
2022/05/25 00:51:49;;;;;;;2.00;1.80;;;;;;;;;;5079563;28;24788;-46
2022/05/25 00:54:17;;;;;;;1.80;1.60;;;;;;;;;;5079022;28;24432;-46
2022/05/25 00:56:45;;;;;;;2.95;1.80;;;;;;;;;;5074562;28;25309;-46
2022/05/25 00:59:10;;;;;;;1.90;1.80;;;;;;;;;;5084379;28;24504;-46
2022/05/25 01:01:35;;;;;;;1.80;1.70;;;;;;;;;;5089615;28;24476;-46
2022/05/25 01:04:00;;;;;;;2.10;1.60;;;;;;;;;;5078484;28;24476;-46
2022/05/25 01:06:31;;;;;;;2.00;1.80;;;;;;;;;;5087425;28;24493;-46
2022/05/25 01:09:20;;;;;;;2.10;1.80;;;;;;;;;;5082084;28;24426;-45
2022/05/25 01:12:04;;;;;;;2.50;2.00;;;;;;;;;;5074237;28;24419;-46
2022/05/25 01:14:30;;;;;;;2.20;2.00;;;;;;;;;;5087699;28;24449;-45
2022/05/25 01:17:21;;;;;;;2.73;1.83;;;;;;;;;;5079132;28;24423;-46
2022/05/25 01:20:06;;;;;;;2.03;1.83;;;;;;;;;;5076380;28;24426;-45
2022/05/25 01:22:50;;;;;;;2.40;1.85;;;;;;;;;;5083448;28;24445;-45
2022/05/25 01:25:26;;;;;;;1.80;1.70;;;;;;;;;;5078914;28;24532;-46
2022/05/25 01:27:52;;;;;;;2.10;1.90;;;;;;;;;;5087953;28;24960;-45
2022/05/25 01:30:22;;;;;;;2.13;1.90;;;;;;;;;;5081183;28;24445;-45
2022/05/25 01:33:06;;;;;;;2.20;2.00;;;;;;;;;;5071889;28;24429;-45
2022/05/25 01:35:50;;;;;;;2.10;1.90;;;;;;;;;;5076273;28;24429;-45
2022/05/25 01:38:26;;;;;;;2.60;1.98;;;;;;;;;;5073827;28;24502;-45
2022/05/25 01:41:24;;;;;;;3.00;2.10;;;;;;;;;;5086202;28;24776;-45
2022/05/25 01:44:01;;;;;;;2.75;2.20;;;;;;;;;;5021432;28;24801;-45
2022/05/25 01:46:40;;;;;;;2.40;2.00;;;;;;;;;;5085525;28;24466;-45
2022/05/25 01:49:07;;;;;;;2.95;2.10;;;;;;;;;;5085639;28;24890;-45
2022/05/25 01:51:39;;;;;;;2.10;1.90;;;;;;;;;;5092031;28;24421;-46
2022/05/25 01:54:05;;;;;;;2.22;1.90;;;;;;;;;;5086190;28;24982;-46
2022/05/25 01:56:32;;;;;;;2.20;1.73;;;;;;;;;;5093089;28;24421;-46
2022/05/25 01:58:59;;;;;;;2.20;2.00;;;;;;;;;;5085959;28;24430;-46
2022/05/25 02:01:24;;;;;;;3.13;2.10;;;;;;;;;;5096690;28;24525;-46
2022/05/25 02:06:39;;;;;;;2.50;2.30;;;;;;;;;;5079443;28;24417;-46
2022/05/25 02:09:16;;;;;;;2.42;2.22;;;;;;;;;;5093257;28;25031;-46
2022/05/25 02:11:45;;;;;;;2.45;2.20;;;;;;;;;;5076643;28;24789;-46
2022/05/25 02:14:17;;;;;;;2.88;2.10;;;;;;;;;;5092192;28;24512;-46
2022/05/25 02:16:53;;;;;;;2.35;2.10;;;;;;;;;;5086554;28;24995;-46
2022/05/25 02:19:30;;;;;;;1.90;1.80;;;;;;;;;;5071251;28;24439;-46
2022/05/25 02:22:16;;;;;;;2.85;2.15;;;;;;;;;;5082929;28;24433;-45
2022/05/25 02:24:52;;;;;;;2.40;1.90;;;;;;;;;;5089432;28;24509;-46
2022/05/25 02:27:28;;;;;;;2.45;2.25;;;;;;;;;;5086641;28;24421;-45
2022/05/25 02:29:58;;;;;;;2.30;2.10;;;;;;;;;;5071579;28;24432;-45
2022/05/25 02:32:25;;;;;;;2.38;1.98;;;;;;;;;;5082054;28;24476;-45
2022/05/25 02:34:52;;;;;;;3.92;2.42;;;;;;;;;;5086093;28;25297;-47
2022/05/25 02:37:19;;;;;;;2.20;2.00;;;;;;;;;;5073223;28;25223;-46
2022/05/25 02:39:45;;;;;;;2.27;2.10;;;;;;;;;;5087133;28;24444;-45
2022/05/25 02:42:12;;;;;;;2.60;2.40;;;;;;;;;;5080363;28;25306;-46
2022/05/25 02:44:38;;;;;;;2.72;2.50;;;;;;;;;;5074971;28;24438;-45
2022/05/25 02:47:03;;;;;;;2.70;2.35;;;;;;;;;;5066507;28;24523;-46
2022/05/25 02:49:28;;;;;;;2.80;2.40;;;;;;;;;;5073048;28;24839;-45
2022/05/25 02:51:53;;;;;;;2.47;2.27;;;;;;;;;;5066958;28;24437;-46
2022/05/25 02:54:22;;;;;;;2.70;2.50;;;;;;;;;;5067441;28;24419;-46
2022/05/25 02:56:47;;;;;;;2.67;2.47;;;;;;;;;;5067124;28;25005;-45
2022/05/25 02:59:12;;;;;;;3.30;2.60;;;;;;;;;;5066586;28;24419;-46
2022/05/25 03:01:37;;;;;;;2.40;2.20;;;;;;;;;;5074086;28;24826;-45
2022/05/25 03:04:02;;;;;;;2.53;2.33;;;;;;;;;;5063196;28;24426;-46
2022/05/25 03:06:27;;;;;;;2.70;2.50;;;;;;;;;;5074238;28;24947;-46
2022/05/25 03:08:52;;;;;;;2.70;2.40;;;;;;;;;;5068291;28;24437;-45
2022/05/25 03:11:18;;;;;;;2.45;2.25;;;;;;;;;;5072398;28;24489;-46
2022/05/25 03:13:47;;;;;;;3.37;2.30;;;;;;;;;;5062418;28;24412;-46
2022/05/25 03:16:13;;;;;;;2.60;2.40;;;;;;;;;;5072516;28;24502;-45
2022/05/25 03:18:38;;;;;;;2.35;2.10;;;;;;;;;;5074578;28;24533;-45
2022/05/25 03:21:03;;;;;;;2.40;2.20;;;;;;;;;;5067875;28;24983;-45
2022/05/25 03:23:28;;;;;;;2.63;2.42;;;;;;;;;;5063265;28;24788;-46
2022/05/25 03:25:53;;;;;;;2.90;2.70;;;;;;;;;;5074248;28;24987;-46
2022/05/25 03:28:18;;;;;;;3.67;2.38;;;;;;;;;;5072662;28;24429;-47
2022/05/25 03:30:45;;;;;;;2.70;2.50;;;;;;;;;;5061786;28;24422;-46
2022/05/25 03:33:11;;;;;;;4.88;2.80;;;;;;;;;;5075172;28;24418;-46
2022/05/25 03:35:36;;;;;;;3.30;2.20;;;;;;;;;;5074342;28;24459;-45
2022/05/25 03:38:02;;;;;;;3.13;2.70;;;;;;;;;;5071048;28;24422;-45
2022/05/25 03:40:27;;;;;;;2.40;2.10;;;;;;;;;;5067138;28;24468;-45
2022/05/25 03:42:52;;;;;;;2.90;2.30;;;;;;;;;;5070160;28;24445;-46
2022/05/25 03:45:17;;;;;;;2.83;2.40;;;;;;;;;;5074269;28;24411;-46
2022/05/25 03:47:43;;;;;;;2.43;2.20;;;;;;;;;;5066725;28;24546;-45
2022/05/25 03:50:09;;;;;;;3.22;2.40;;;;;;;;;;5071200;28;24812;-45
2022/05/25 03:52:34;;;;;;;2.35;2.20;;;;;;;;;;5076360;28;24968;-46
2022/05/25 03:54:59;;;;;;;2.40;2.20;;;;;;;;;;5073046;28;24908;-46
2022/05/25 03:57:24;;;;;;;2.20;2.00;;;;;;;;;;5069577;28;24426;-45
2022/05/25 03:59:50;;;;;;;2.30;2.10;;;;;;;;;;5073259;28;24430;-46
2022/05/25 04:02:15;;;;;;;2.30;2.10;;;;;;;;;;5079545;28;24418;-45
2022/05/25 04:04:40;;;;;;;2.10;1.90;;;;;;;;;;5072536;28;24809;-46
2022/05/25 04:07:06;;;;;;;2.10;2.00;;;;;;;;;;5080277;28;24833;-46
2022/05/25 04:09:31;;;;;;;2.50;2.30;;;;;;;;;;5073727;28;24484;-45
2022/05/25 04:11:56;;;;;;;4.60;2.40;;;;;;;;;;5072302;28;24537;-46
2022/05/25 04:14:21;;;;;;;3.85;2.50;;;;;;;;;;5074676;28;24422;-45
2022/05/25 04:16:47;;;;;;;2.50;2.30;;;;;;;;;;5072182;28;24424;-45
2022/05/25 04:19:12;;;;;;;2.70;2.50;;;;;;;;;;5070988;28;24444;-46
2022/05/25 04:21:37;;;;;;;2.40;2.20;;;;;;;;;;5061351;28;24506;-46
2022/05/25 04:24:03;;;;;;;2.80;2.60;;;;;;;;;;5065635;28;24832;-46
2022/05/25 04:26:30;;;;;;;2.58;2.38;;;;;;;;;;5069819;28;24423;-45
2022/05/25 04:28:55;;;;;;;2.70;2.50;;;;;;;;;;5072045;28;24414;-46
2022/05/25 04:31:20;;;;;;;2.87;2.40;;;;;;;;;;5070998;28;24422;-45
2022/05/25 04:33:45;;;;;;;3.00;2.70;;;;;;;;;;5069648;28;24485;-46
2022/05/25 04:36:10;;;;;;;3.37;3.00;;;;;;;;;;5079298;28;24422;-46
2022/05/25 04:38:36;;;;;;;4.22;3.35;;;;;;;;;;5073874;28;24781;-46
2022/05/25 04:41:01;;;;;;;3.43;2.80;;;;;;;;;;5069340;28;24460;-46
2022/05/25 04:43:26;;;;;;;3.10;2.70;;;;;;;;;;5065099;28;24493;-46
2022/05/25 04:45:53;;;;;;;2.40;2.20;;;;;;;;;;5059236;28;24423;-46
2022/05/25 04:48:21;;;;;;;3.08;2.78;;;;;;;;;;5062657;28;24446;-45
2022/05/25 04:50:46;;;;;;;2.47;2.28;;;;;;;;;;5066243;28;24742;-46
2022/05/25 04:53:12;;;;;;;2.28;2.08;;;;;;;;;;5066616;28;24998;-46
2022/05/25 04:58:22;;;;;;;3.70;2.70;;;;;;;;;;5067294;28;24545;-46
2022/05/25 05:00:47;;;;;;;2.40;2.20;;;;;;;;;;5063400;28;24430;-46
2022/05/25 05:03:12;;;;;;;2.57;2.37;;;;;;;;;;5058923;28;25300;-46
2022/05/25 05:05:38;;;;;;;2.40;2.20;;;;;;;;;;5073943;28;24422;-45
2022/05/25 05:08:04;;;;;;;3.90;2.50;;;;;;;;;;5064958;28;24418;-46
2022/05/25 05:10:29;;;;;;;2.60;2.40;;;;;;;;;;5066639;28;24426;-46
2022/05/25 05:12:54;;;;;;;3.95;3.08;;;;;;;;;;5064551;28;24430;-46
2022/05/25 05:15:19;;;;;;;2.45;2.25;;;;;;;;;;5068549;28;24435;-46
2022/05/25 05:17:44;;;;;;;2.60;2.40;;;;;;;;;;5065621;28;25031;-46
2022/05/25 05:20:10;;;;;;;2.90;2.10;;;;;;;;;;5067467;28;24434;-46
2022/05/25 05:22:35;;;;;;;3.40;2.60;;;;;;;;;;5077382;28;24429;-45
2022/05/25 05:25:00;;;;;;;3.60;2.30;;;;;;;;;;5064982;28;24414;-46
2022/05/25 05:27:25;;;;;;;2.47;2.10;;;;;;;;;;5068571;28;24860;-46
2022/05/25 05:29:51;;;;;;;2.83;1.90;;;;;;;;;;5074183;28;24422;-46
2022/05/25 05:32:16;;;;;;;3.40;2.30;;;;;;;;;;5056810;28;24427;-46
2022/05/25 05:34:41;;;;;;;3.50;2.10;;;;;;;;;;5074291;28;24429;-44
2022/05/25 05:37:12;;;;;;;3.80;2.10;;;;;;;;;;5066590;28;25145;-44
2022/05/25 05:39:39;;;;;;;2.30;2.00;;;;;;;;;;5068639;28;25144;-44
2022/05/25 05:42:05;;;;;;;2.92;2.08;;;;;;;;;;5075767;28;25085;-45
2022/05/25 05:44:40;;;;;;;3.17;2.30;;;;;;;;;;5061760;28;24808;-45
2022/05/25 05:47:07;;;;;;;2.30;2.10;;;;;;;;;;5051659;28;24423;-45
2022/05/25 05:49:32;;;;;;;2.20;1.83;;;;;;;;;;5068457;28;24449;-45
2022/05/25 05:51:57;;;;;;;2.30;2.10;;;;;;;;;;5071267;28;24421;-44
2022/05/25 05:54:22;;;;;;;2.80;2.10;;;;;;;;;;5059945;28;24488;-45
2022/05/25 05:56:48;;;;;;;3.53;2.30;;;;;;;;;;5063067;28;24490;-45
2022/05/25 05:59:13;;;;;;;1.80;1.70;;;;;;;;;;5065931;28;24430;-45
2022/05/25 06:01:38;;;;;;;3.05;1.70;;;;;;;;;;5063935;28;24452;-44
2022/05/25 06:04:03;;;;;;;3.27;1.83;;;;;;;;;;5081898;28;24430;-44
2022/05/25 06:06:28;;;;;;;2.20;2.00;;;;;;;;;;5068543;28;24525;-44
2022/05/25 06:08:55;;;;;;;1.90;1.70;;;;;;;;;;5072090;28;24980;-44
2022/05/25 06:11:20;;;;;;;3.20;1.90;;;;;;;;;;5069988;28;24765;-44
2022/05/25 06:13:46;;;;;;;2.92;1.88;;;;;;;;;;5069026;28;24485;-44
2022/05/25 06:21:39;;;;;;;1.80;1.50;;;;;;;;;;5054222;28;24572;-44
2022/05/25 06:24:05;;;;;;;1.50;1.40;;;;;;;;;;5065153;28;25023;-44
2022/05/25 06:26:31;;;;;;;2.27;1.67;;;;;;;;;;5065111;28;24423;-44
2022/05/25 06:28:57;;;;;;;2.80;2.00;;;;;;;;;;5068782;28;24407;-45
2022/05/25 06:31:22;;;;;;;3.10;2.00;;;;;;;;;;5068156;28;24765;-45
2022/05/25 06:33:47;;;;;;;2.10;1.90;;;;;;;;;;5057081;28;24441;-45
2022/05/25 06:36:19;;;;;;;2.00;1.80;;;;;;;;;;5054509;28;24421;-45
2022/05/25 06:38:45;;;;;;;2.60;2.00;;;;;;;;;;5063967;28;24422;-44
2022/05/25 06:41:10;;;;;;;2.00;1.63;;;;;;;;;;5068633;28;24418;-45
2022/05/25 06:43:36;;;;;;;1.70;1.60;;;;;;;;;;5094751;28;24983;-44
2022/05/25 06:46:01;;;;;;;2.67;1.60;;;;;;;;;;5103469;28;25275;-45
2022/05/25 06:48:26;;;;;;;1.92;1.60;;;;;;;;;;5105187;28;24418;-45
2022/05/25 06:50:51;;;;;;;2.22;1.45;;;;;;;;;;5080547;28;24429;-44
2022/05/25 06:53:16;;;;;;;1.70;1.60;;;;;;;;;;5099000;28;25011;-44
2022/05/25 06:55:41;;;;;;;2.60;1.60;;;;;;;;;;5103945;28;24795;-45
2022/05/25 06:58:07;;;;;;;2.40;1.80;;;;;;;;;;5100098;28;24756;-44
2022/05/25 07:00:32;;;;;;;2.80;1.60;;;;;;;;;;5108173;28;25087;-45
2022/05/25 07:03:01;;;;;;;2.37;1.60;;;;;;;;;;5096442;28;24429;-44
2022/05/25 07:05:26;;;;;;;1.85;1.30;;;;;;;;;;5092508;28;24421;-44
2022/05/25 07:07:51;;;;;;;1.40;1.30;;;;;;;;;;5097057;28;24475;-45
2022/05/25 07:10:16;;;;;;;1.90;1.50;;;;;;;;;;5103493;28;24428;-45
2022/05/25 07:12:41;;;;;;;2.60;1.60;;;;;;;;;;5103734;28;24878;-45
2022/05/25 07:15:07;;;;;;;1.85;1.60;;;;;;;;;;5107609;28;24812;-45
2022/05/25 07:17:33;;;;;;;1.60;1.50;;;;;;;;;;5085590;28;25046;-45
2022/05/25 07:19:58;;;;;;;1.85;1.40;;;;;;;;;;5087926;28;24500;-44
2022/05/25 07:22:23;;;;;;;2.30;1.50;;;;;;;;;;5067998;28;24819;-44
2022/05/25 07:24:48;;;;;;;1.70;1.20;;;;;;;;;;5066161;28;24393;-45
2022/05/25 07:27:14;;;;;;;1.50;1.40;;;;;;;;;;5086534;28;24421;-44
2022/05/25 07:29:39;;;;;;;2.40;1.30;;;;;;;;;;5087949;28;24452;-44
2022/05/25 07:32:06;;;;;;;2.27;1.30;;;;;;;;;;5067438;28;24419;-44
2022/05/25 07:34:33;;;;;;;1.70;1.60;;;;;;;;;;5066735;28;24449;-43
2022/05/25 07:37:04;;;;;;;1.63;1.33;;;;;;;;;;5087544;28;24586;-44
2022/05/25 07:39:34;;;;;;;2.80;1.40;;;;;;;;;;5086315;28;24459;-43
2022/05/25 07:42:00;;;;;;;3.10;1.50;;;;;;;;;;5060940;28;24477;-44
2022/05/25 07:44:31;;;;;;;1.70;1.48;;;;;;;;;;5047591;28;24920;-45
2022/05/25 07:46:56;;;;;;;2.00;1.60;;;;;;;;;;5064770;28;24457;-44
2022/05/25 07:49:23;;;;;;;1.50;1.20;;;;;;;;;;5064506;28;28177;-44
2022/05/25 07:51:48;;;;;;;2.90;1.50;;;;;;;;;;5045859;28;24465;-44
2022/05/25 07:54:14;;;;;;;2.00;1.58;;;;;;;;;;5048916;28;24820;-45
2022/05/25 07:56:39;;;;;;;1.70;1.60;;;;;;;;;;5065334;28;24398;-45
2022/05/25 07:59:06;;;;;;;2.27;1.40;;;;;;;;;;5063582;28;24514;-45
2022/05/25 08:07:02;;;;;;;1.80;1.40;;;;;;;;;;5065357;28;24981;-45
2022/05/25 08:09:29;;;;;;;2.80;1.75;;;;;;;;;;5066914;28;24395;-45
2022/05/25 08:11:54;;;;;;;2.00;1.50;;;;;;;;;;5067015;28;24444;-45
2022/05/25 08:14:21;;;;;;;1.70;1.60;;;;;;;;;;5053342;28;24426;-45
2022/05/25 08:16:46;;;;;;;1.58;1.48;;;;;;;;;;5046793;28;24406;-45
2022/05/25 08:19:11;;;;;;;2.15;1.60;;;;;;;;;;5045786;28;24424;-45
2022/05/25 08:21:36;;;;;;;1.63;1.53;;;;;;;;;;5046973;28;24388;-45
2022/05/25 08:24:01;;;;;;;2.22;1.60;;;;;;;;;;5045833;28;24514;-45
2022/05/25 08:26:26;;;;;;;2.00;1.80;;;;;;;;;;5045099;28;24429;-45
2022/05/25 08:28:51;;;;;;;2.70;1.50;;;;;;;;;;5059130;28;24824;-48
2022/05/25 08:31:17;;;;;;;1.70;1.60;;;;;;;;;;5064911;28;24397;-45
2022/05/25 08:33:43;;;;;;;1.70;1.60;;;;;;;;;;5062416;28;24505;-45
2022/05/25 08:36:08;;;;;;;1.90;1.30;;;;;;;;;;5064951;28;24768;-44
2022/05/25 08:38:33;;;;;;;2.58;1.52;;;;;;;;;;5066387;28;24932;-45
2022/05/25 08:40:59;;;;;;;2.00;1.50;;;;;;;;;;5066246;28;24411;-45
2022/05/25 08:43:31;;;;;;;1.40;1.30;;;;;;;;;;5066659;28;24419;-45
2022/05/25 08:46:01;;;;;;;1.30;1.20;;;;;;;;;;5066273;28;24451;-45
2022/05/25 08:48:27;;;;;;;2.10;1.50;;;;;;;;;;5066335;28;24490;-45
2022/05/25 08:50:53;;;;;;;1.40;1.30;;;;;;;;;;5066537;28;24545;-45
2022/05/25 08:53:20;;;;;;;1.40;1.30;;;;;;;;;;5066036;28;24415;-45
2022/05/25 08:55:56;;;;;;;1.20;1.10;;;;;;;;;;5066215;28;24490;-44
2022/05/25 08:58:23;;;;;;;1.67;1.30;;;;;;;;;;5066872;28;24395;-45
2022/05/25 09:00:50;;;;;;;1.52;1.42;;;;;;;;;;5066388;28;24450;-45
2022/05/25 09:03:16;;;;;;;1.87;1.30;;;;;;;;;;5065908;28;24484;-45
2022/05/25 09:05:47;;;;;;;1.30;1.20;;;;;;;;;;5066016;28;24465;-45
2022/05/25 09:08:31;;;;;;;1.60;1.30;;;;;;;;;;5065820;28;24480;-45
2022/05/25 09:10:58;;;;;;;1.73;1.20;;;;;;;;;;5066370;28;24403;-45
2022/05/25 09:13:36;;;;;;;1.50;1.40;;;;;;;;;;5065925;28;24407;-45
2022/05/25 09:16:16;;;;;;;1.50;1.30;;;;;;;;;;5065555;28;24418;-45
2022/05/25 09:19:00;;;;;;;1.10;1.00;;;;;;;;;;5066085;28;24516;-45
2022/05/25 09:21:27;;;;;;;1.60;1.30;;;;;;;;;;5066225;28;25155;-45
2022/05/25 09:23:52;;;;;;;1.20;1.10;;;;;;;;;;5065752;28;24374;-45
2022/05/25 09:26:17;;;;;;;1.40;1.30;;;;;;;;;;5065424;28;25020;-45
2022/05/25 09:28:46;;;;;;;1.70;1.50;;;;;;;;;;5066101;28;24397;-45
2022/05/25 09:31:12;;;;;;;2.00;1.30;;;;;;;;;;5065857;28;24399;-45
2022/05/25 09:33:50;;;;;;;1.38;1.27;;;;;;;;;;5074449;28;24459;-45
2022/05/25 09:36:15;;;;;;;1.27;1.20;;;;;;;;;;5085561;28;24401;-45
2022/05/25 09:38:43;;;;;;;1.50;1.40;;;;;;;;;;5086143;28;24428;-45
2022/05/25 09:41:19;;;;;;;1.40;1.30;;;;;;;;;;5085927;28;24480;-45
2022/05/25 09:43:44;;;;;;;1.40;1.10;;;;;;;;;;5085523;28;24826;-45
2022/05/25 09:46:22;;;;;;;1.80;1.20;;;;;;;;;;5085488;28;24979;-45
2022/05/25 09:48:49;;;;;;;1.40;1.30;;;;;;;;;;5086047;28;24422;-47
2022/05/25 09:51:25;;;;;;;3.40;1.20;;;;;;;;;;5085658;28;24386;-45
2022/05/25 09:53:53;;;;;;;1.10;1.00;;;;;;;;;;5085766;28;25024;-45
2022/05/25 09:56:32;;;;;;;1.07;1.07;;;;;;;;;;5085506;28;24387;-44
2022/05/25 09:59:00;;;;;;;1.58;1.27;;;;;;;;;;5085857;28;24859;-45
2022/05/25 10:01:45;;;;;;;1.90;1.13;;;;;;;;;;5085558;28;24436;-44
2022/05/25 10:04:13;;;;;;;1.70;1.30;;;;;;;;;;5085429;28;25055;-45
2022/05/25 10:06:49;;;;;;;1.50;1.20;;;;;;;;;;5086663;28;25008;-45
2022/05/25 10:09:22;;;;;;;1.40;1.10;;;;;;;;;;5089476;28;24460;-45
2022/05/25 10:11:49;;;;;;;1.05;1.00;;;;;;;;;;5089648;28;24398;-45
2022/05/25 10:14:21;;;;;;;1.30;1.10;;;;;;;;;;5088855;28;24405;-44
2022/05/25 10:16:47;;;;;;;1.00;0.90;;;;;;;;;;5088711;28;25041;-45
2022/05/25 10:19:13;;;;;;;1.50;1.00;;;;;;;;;;5088918;28;24402;-45
2022/05/25 10:21:39;;;;;;;1.40;0.90;;;;;;;;;;5089429;28;24401;-45
2022/05/25 10:24:13;;;;;;;3.05;1.30;;;;;;;;;;5089247;28;24438;-44
2022/05/25 10:26:44;;;;;;;1.40;1.30;;;;;;;;;;5088997;28;24491;-45
2022/05/25 10:29:11;;;;;;;1.20;1.10;;;;;;;;;;5088955;28;24397;-45
2022/05/25 10:37:17;;;;;;;1.40;1.00;;;;;;;;;;5067591;28;24978;-45
2022/05/25 10:39:45;;;;;;;1.00;0.90;;;;;;;;;;5047258;28;24945;-45
2022/05/25 10:42:31;;;;;;;0.90;0.90;;;;;;;;;;5048752;28;24419;-45
2022/05/25 10:45:08;;;;;;;1.33;1.00;;;;;;;;;;5068476;28;24528;-45
2022/05/25 10:47:46;;;;;;;1.25;1.10;;;;;;;;;;5061677;28;25010;-45
2022/05/25 10:50:49;;;;;;;1.50;1.00;;;;;;;;;;5046998;28;24457;-45
2022/05/25 10:53:14;;;;;;;1.10;1.00;;;;;;;;;;4998484;28;24424;-45
2022/05/25 10:55:45;;;;;;;1.77;1.00;;;;;;;;;;5004213;28;24467;-46
2022/05/25 10:58:23;;;;;;;0.90;0.90;;;;;;;;;;5025245;28;24797;-45
2022/05/25 11:01:06;;;;;;;1.10;1.00;;;;;;;;;;5048521;28;24415;-44
2022/05/25 11:03:43;;;;;;;0.90;0.90;;;;;;;;;;5048109;28;24499;-46
2022/05/25 11:06:27;;;;;;;1.80;1.00;;;;;;;;;;5048116;28;24399;-47
2022/05/25 11:08:55;;;;;;;2.35;1.00;;;;;;;;;;5048174;28;24490;-45
2022/05/25 11:11:43;;;;;;;1.07;0.90;;;;;;;;;;5048359;28;24529;-45
2022/05/25 11:14:29;;;;;;;3.40;1.00;;;;;;;;;;5048286;28;24410;-46
2022/05/25 11:17:02;;;;;;;1.10;0.90;;;;;;;;;;5047791;28;24399;-45
2022/05/25 11:19:30;;;;;;;1.45;1.27;;;;;;;;;;5046753;28;24407;-45
2022/05/25 11:21:55;;;;;;;1.20;1.10;;;;;;;;;;5048004;28;24430;-45
2022/05/25 11:24:35;;;;;;;2.00;1.30;;;;;;;;;;5048042;28;24419;-45
2022/05/25 11:27:09;;;;;;;2.03;1.35;;;;;;;;;;5047751;28;24457;-44
2022/05/25 11:29:43;;;;;;;1.17;1.08;;;;;;;;;;5047746;28;24741;-45
2022/05/25 11:32:27;;;;;;;1.20;1.10;;;;;;;;;;5051966;28;24403;-45
2022/05/25 11:35:05;;;;;;;2.03;1.50;;;;;;;;;;5067616;28;24795;-45
2022/05/25 11:37:33;;;;;;;1.97;1.37;;;;;;;;;;5067670;28;24518;-45
2022/05/25 11:40:04;;;;;;;1.30;1.15;;;;;;;;;;5067649;28;24644;-45
2022/05/25 11:42:53;;;;;;;2.88;1.00;;;;;;;;;;5066976;28;24984;-45
2022/05/25 11:45:29;;;;;;;1.10;1.00;;;;;;;;;;5067156;28;21380;-45
2022/05/25 11:48:14;;;;;;;1.23;0.90;;;;;;;;;;5067274;28;24425;-45
2022/05/25 11:50:46;;;;;;;1.50;1.30;;;;;;;;;;5067443;28;24394;-45
2022/05/25 11:53:12;;;;;;;1.50;1.30;;;;;;;;;;5067038;28;24482;-45
2022/05/25 11:55:44;;;;;;;1.60;1.20;;;;;;;;;;5067479;28;24887;-45
2022/05/25 11:58:30;;;;;;;0.98;0.90;;;;;;;;;;5067340;28;25008;-45
2022/05/25 12:01:03;;;;;;;1.10;1.10;;;;;;;;;;5067352;28;24419;-45
2022/05/25 12:03:34;;;;;;;0.90;0.90;;;;;;;;;;5066968;28;24394;-45
2022/05/25 12:06:05;;;;;;;1.40;1.00;;;;;;;;;;5066906;28;24468;-45
2022/05/25 12:08:57;;;;;;;1.50;1.10;;;;;;;;;;5066694;28;24950;-45
2022/05/25 12:11:32;;;;;;;2.03;1.30;;;;;;;;;;5028111;28;25006;-46
2022/05/25 12:14:00;;;;;;;1.10;1.00;;;;;;;;;;5066996;28;24715;-45
2022/05/25 12:16:38;;;;;;;1.63;1.37;;;;;;;;;;5066155;28;24933;-44
2022/05/25 12:19:11;;;;;;;1.98;1.15;;;;;;;;;;5066808;28;24394;-45
2022/05/25 12:21:38;;;;;;;1.60;1.10;;;;;;;;;;5066791;28;24992;-45
2022/05/25 12:24:11;;;;;;;1.70;1.10;;;;;;;;;;5067001;28;24943;-44
2022/05/25 12:26:37;;;;;;;1.45;0.90;;;;;;;;;;5066584;28;24471;-45
2022/05/25 12:29:18;;;;;;;1.10;1.00;;;;;;;;;;5066855;28;24485;-45
2022/05/25 12:31:44;;;;;;;1.45;1.35;;;;;;;;;;5067163;28;24402;-45
2022/05/25 12:34:17;;;;;;;2.05;1.40;;;;;;;;;;5086610;28;24470;-45
2022/05/25 12:36:42;;;;;;;1.50;1.40;;;;;;;;;;5086521;28;24757;-45
2022/05/25 12:39:08;;;;;;;1.13;0.95;;;;;;;;;;5086991;28;24399;-45
2022/05/25 12:41:35;;;;;;;3.50;1.20;;;;;;;;;;5086058;28;24502;-45
2022/05/25 12:50:01;;;;;;;1.30;1.20;;;;;;;;;;5087103;28;24382;-45
2022/05/25 12:52:26;;;;;;;2.03;1.30;;;;;;;;;;5086188;28;24461;-45
2022/05/25 12:54:51;;;;;;;1.20;1.10;;;;;;;;;;5086407;28;24432;-44
2022/05/25 12:57:24;;;;;;;1.40;1.20;;;;;;;;;;5078792;28;25045;-45
2022/05/25 12:59:50;;;;;;;1.13;1.02;;;;;;;;;;5064423;28;24539;-45
2022/05/25 13:02:18;;;;;;;1.75;1.65;;;;;;;;;;5065246;28;24869;-45
2022/05/25 13:04:48;;;;;;;2.08;1.20;;;;;;;;;;5064705;28;24486;-46
2022/05/25 13:07:19;;;;;;;1.92;1.10;;;;;;;;;;5058884;28;24415;-45
2022/05/25 13:09:45;;;;;;;1.70;1.10;;;;;;;;;;5044826;28;24406;-45
2022/05/25 13:12:29;;;;;;;1.30;1.20;;;;;;;;;;5045654;28;25260;-45
2022/05/25 13:14:55;;;;;;;2.03;1.08;;;;;;;;;;5044544;28;24399;-44
2022/05/25 13:17:40;;;;;;;1.88;1.20;;;;;;;;;;5055099;28;24477;-44
2022/05/25 13:20:07;;;;;;;1.20;1.00;;;;;;;;;;5064238;28;24502;-44
2022/05/25 13:22:33;;;;;;;1.88;1.30;;;;;;;;;;5052024;28;24562;-44
2022/05/25 13:25:07;;;;;;;1.10;1.00;;;;;;;;;;5044569;28;24395;-44
2022/05/25 13:27:46;;;;;;;1.50;1.00;;;;;;;;;;5045420;28;24509;-44
2022/05/25 13:30:17;;;;;;;2.70;1.27;;;;;;;;;;5044182;28;24425;-43
2022/05/25 13:32:52;;;;;;;2.20;1.60;;;;;;;;;;5047227;28;24465;-43
2022/05/25 13:35:20;;;;;;;3.20;1.30;;;;;;;;;;5044182;28;24399;-44
2022/05/25 13:37:50;;;;;;;1.30;1.10;;;;;;;;;;5045878;28;24392;-43
2022/05/25 13:40:15;;;;;;;1.10;1.00;;;;;;;;;;5045176;28;24477;-44
2022/05/25 13:42:43;;;;;;;1.20;1.10;;;;;;;;;;5046090;28;24473;-44
2022/05/25 13:45:12;;;;;;;1.10;1.00;;;;;;;;;;5050546;28;24414;-44
2022/05/25 13:47:38;;;;;;;2.50;1.20;;;;;;;;;;5067577;28;24406;-44
2022/05/25 13:50:03;;;;;;;0.90;0.90;;;;;;;;;;5068774;28;24430;-44
2022/05/25 13:52:35;;;;;;;1.60;1.20;;;;;;;;;;5048635;28;24855;-44
2022/05/25 13:55:04;;;;;;;1.25;1.15;;;;;;;;;;5049869;28;24399;-44
2022/05/25 13:57:40;;;;;;;1.80;1.10;;;;;;;;;;5049342;28;24486;-44
2022/05/25 14:00:20;;;;;;;3.00;1.30;;;;;;;;;;5049494;28;24858;-44
2022/05/25 14:02:47;;;;;;;2.50;1.25;;;;;;;;;;5049584;28;24394;-44
2022/05/25 14:05:12;;;;;;;1.40;1.20;;;;;;;;;;5049241;28;24403;-44
2022/05/25 14:07:40;;;;;;;2.60;1.20;;;;;;;;;;5048266;28;24404;-44
2022/05/25 14:13:17;;;;;;;1.75;1.10;;;;;;;;;;5049716;28;24783;-45
2022/05/25 14:15:52;;;;;;;1.20;1.10;;;;;;;;;;5049062;28;24404;-44
2022/05/25 14:18:17;;;;;;;1.13;1.00;;;;;;;;;;5049301;28;24395;-44
2022/05/25 14:20:42;;;;;;;2.53;1.40;;;;;;;;;;5049043;28;24817;-44
2022/05/25 14:23:08;;;;;;;2.43;1.20;;;;;;;;;;5049023;28;24411;-44
2022/05/25 14:25:33;;;;;;;1.30;1.00;;;;;;;;;;5049062;28;24956;-44
2022/05/25 14:27:58;;;;;;;1.20;1.00;;;;;;;;;;5049075;28;24486;-44
2022/05/25 14:30:31;;;;;;;1.27;1.20;;;;;;;;;;5053169;28;25144;-44
2022/05/25 14:33:08;;;;;;;1.15;1.05;;;;;;;;;;5068679;28;24744;-44
2022/05/25 14:35:35;;;;;;;3.42;1.20;;;;;;;;;;5068836;28;24490;-44
2022/05/25 14:38:01;;;;;;;1.23;1.13;;;;;;;;;;5068796;28;24955;-44
2022/05/25 14:40:29;;;;;;;1.30;1.20;;;;;;;;;;5068699;28;24498;-44
2022/05/25 14:42:59;;;;;;;2.28;1.00;;;;;;;;;;5068353;28;24734;-44
2022/05/25 14:45:25;;;;;;;1.50;1.10;;;;;;;;;;5068713;28;24412;-44
2022/05/25 14:47:51;;;;;;;1.40;1.20;;;;;;;;;;5068630;28;24390;-44
2022/05/25 14:50:21;;;;;;;1.20;1.10;;;;;;;;;;5068851;28;24465;-44
2022/05/25 14:52:57;;;;;;;1.77;1.30;;;;;;;;;;5068755;28;24418;-43
2022/05/25 14:55:28;;;;;;;1.10;1.00;;;;;;;;;;5068335;28;24405;-44
2022/05/25 14:58:02;;;;;;;1.40;1.20;;;;;;;;;;5068048;28;25396;-44
2022/05/25 15:00:27;;;;;;;1.17;1.08;;;;;;;;;;5075153;28;25080;-44
2022/05/25 15:02:59;;;;;;;1.90;1.10;;;;;;;;;;5088653;28;24403;-44
2022/05/25 15:05:36;;;;;;;1.90;0.90;;;;;;;;;;5088290;28;24745;-44
2022/05/25 15:08:02;;;;;;;1.30;1.20;;;;;;;;;;5088829;28;24398;-44
2022/05/25 15:10:28;;;;;;;1.70;1.40;;;;;;;;;;5088442;28;24978;-44
2022/05/25 15:12:53;;;;;;;1.10;1.10;;;;;;;;;;5087983;28;24425;-44
2022/05/25 15:18:33;;;;;;;1.40;1.00;;;;;;;;;;5085861;28;24490;-44
2022/05/25 15:21:01;;;;;;;1.25;1.15;;;;;;;;;;5088112;28;24849;-44
2022/05/25 15:23:33;;;;;;;1.33;1.23;;;;;;;;;;5088432;28;24494;-44
2022/05/25 15:26:13;;;;;;;1.90;1.30;;;;;;;;;;5088410;28;24402;-44
2022/05/25 15:28:39;;;;;;;1.70;1.00;;;;;;;;;;5087846;28;24402;-44
2022/05/25 15:31:05;;;;;;;1.50;1.40;;;;;;;;;;5071839;28;24414;-44